createdAt,value
2017-09-03T10:42:53.050Z,79584
2017-09-03T10:43:54.440Z,77504
2017-09-03T10:44:55.832Z,19872
2017-09-03T10:45:57.233Z,54080
2017-09-03T10:46:58.626Z,83040
2017-09-03T10:48:00.030Z,85760
2017-09-03T10:49:01.429Z,87936
2017-09-03T10:50:02.815Z,84448
2017-09-03T10:51:04.207Z,84128
2017-09-03T10:52:05.602Z,82656
2017-09-03T10:53:06.994Z,84544
2017-09-03T10:54:08.393Z,62112
2017-09-03T10:55:50.783Z,85920
2017-09-03T10:56:52.175Z,86848
2017-09-03T10:57:53.574Z,85184
2017-09-03T10:58:54.987Z,83712
2017-09-03T10:59:56.381Z,82656
2017-09-03T11:00:57.776Z,71840
2017-09-03T11:01:59.170Z,13236
2017-09-03T11:03:00.562Z,13472
2017-09-03T11:04:41.955Z,14356
2017-09-03T11:05:43.352Z,13936
2017-09-03T11:06:44.742Z,33312
2017-09-03T11:07:46.137Z,17436
2017-09-03T11:08:47.531Z,18592
2017-09-03T11:09:48.925Z,18304
2017-09-03T11:10:50.326Z,89600
2017-09-03T11:11:51.721Z,88224
2017-09-03T11:12:53.107Z,86880
2017-09-03T11:13:54.506Z,87296
2017-09-03T11:14:55.901Z,86976
2017-09-03T11:15:57.293Z,83552
2017-09-03T11:16:58.688Z,84448
2017-09-03T11:18:00.085Z,83616
2017-09-03T11:19:01.484Z,83264
2017-09-03T11:20:02.876Z,84000
2017-09-03T11:21:04.269Z,84128
2017-09-03T11:22:05.663Z,84320
2017-09-03T11:23:07.056Z,83968
2017-09-03T11:24:08.453Z,87808
2017-09-03T11:25:09.859Z,85728
2017-09-03T11:26:11.255Z,42432
2017-09-03T11:27:12.649Z,17440
2017-09-03T11:28:14.044Z,36704
2017-09-03T11:29:15.454Z,29888
2017-09-03T11:30:16.851Z,85824
2017-09-03T11:31:18.246Z,84992
2017-09-03T11:32:19.663Z,85120
2017-09-03T11:33:21.098Z,85696
2017-09-03T11:34:22.494Z,14984
2017-09-03T11:35:23.886Z,14092
2017-09-03T11:37:05.285Z,15000
2017-09-03T11:38:06.678Z,15264
2017-09-03T11:39:08.068Z,39488
2017-09-03T11:40:09.485Z,70624
2017-09-03T11:41:10.879Z,16808
2017-09-03T11:42:12.283Z,15140
2017-09-03T11:43:13.688Z,19616
2017-09-03T11:44:15.081Z,16576
2017-09-03T11:45:16.473Z,15748
2017-09-03T11:46:17.856Z,15180
2017-09-03T11:47:19.263Z,44992
2017-09-03T11:48:20.659Z,86144
2017-09-03T11:49:22.052Z,82240
2017-09-03T11:50:23.447Z,79424
2017-09-03T11:51:24.844Z,79840
2017-09-03T11:52:26.234Z,20864
2017-09-03T11:53:27.624Z,20288
2017-09-03T11:54:29.035Z,23072
2017-09-03T11:55:30.422Z,48864
2017-09-03T11:56:31.826Z,78112
2017-09-03T11:57:33.218Z,25472
2017-09-03T11:58:34.622Z,78496
2017-09-03T11:59:36.017Z,78400
2017-09-03T12:00:37.406Z,79744
2017-09-03T12:01:38.805Z,79552
2017-09-03T12:02:40.203Z,19968
2017-09-03T12:03:41.597Z,16584
2017-09-03T12:04:42.991Z,15048
2017-09-03T12:05:44.382Z,13648
2017-09-03T12:06:45.780Z,13416
2017-09-03T12:07:47.177Z,14492
2017-09-03T12:09:29.583Z,18272
2017-09-03T12:10:30.985Z,27232
2017-09-03T12:11:32.367Z,74336
2017-09-03T12:12:33.758Z,75264
2017-09-03T12:13:35.156Z,75200
2017-09-03T12:14:36.544Z,72704
2017-09-03T12:15:37.944Z,69792
2017-09-03T12:16:39.332Z,66976
2017-09-03T12:17:40.733Z,64064
2017-09-03T12:18:42.125Z,21376
2017-09-03T12:19:43.515Z,18020
2017-09-03T12:20:44.951Z,64544
2017-09-03T12:21:46.345Z,74528
2017-09-03T12:22:47.739Z,73376
2017-09-03T12:23:49.157Z,77088
2017-09-03T12:24:50.583Z,76928
2017-09-03T12:25:51.976Z,75232
2017-09-03T12:26:53.387Z,76320
2017-09-03T12:27:54.781Z,78112
2017-09-03T12:28:56.178Z,77696
2017-09-03T12:29:57.583Z,76224
2017-09-03T12:30:58.977Z,75200
2017-09-03T12:32:00.451Z,75168
2017-09-03T12:33:01.849Z,76288
2017-09-03T12:34:03.244Z,76512
2017-09-03T12:35:04.677Z,76192
2017-09-03T12:36:06.041Z,76960
2017-09-03T12:37:07.473Z,77184
2017-09-03T12:38:08.873Z,75680
2017-09-03T12:39:10.291Z,73536
2017-09-03T12:40:11.690Z,74144
2017-09-03T12:41:13.090Z,72576
2017-09-03T12:42:14.487Z,72928
2017-09-03T12:43:15.888Z,75360
2017-09-03T12:44:17.293Z,75392
2017-09-03T12:45:18.691Z,74848
2017-09-03T12:46:20.093Z,73280
2017-09-03T12:48:02.484Z,72640
2017-09-03T12:49:03.877Z,72960
2017-09-03T12:50:05.276Z,71680
2017-09-03T12:51:06.669Z,70816
2017-09-03T12:52:08.065Z,70496
2017-09-03T12:53:09.467Z,72544
2017-09-03T12:54:10.865Z,65088
2017-09-03T12:55:12.263Z,51328
2017-09-03T12:56:13.664Z,41376
2017-09-03T12:57:15.063Z,39584
2017-09-03T12:58:16.460Z,39968
2017-09-03T12:59:17.860Z,41888
2017-09-03T13:00:19.254Z,41120
2017-09-03T13:01:20.661Z,40832
2017-09-03T13:02:22.062Z,40576
2017-09-03T13:04:04.458Z,37920
2017-09-03T13:05:05.855Z,39200
2017-09-03T13:06:07.253Z,40512
2017-09-03T13:07:08.668Z,37152
2017-09-03T13:08:10.079Z,20864
2017-09-03T13:09:11.480Z,32352
2017-09-03T13:10:12.879Z,29280
2017-09-03T13:11:14.279Z,37088
2017-09-03T13:12:15.676Z,34464
2017-09-03T13:13:17.073Z,43456
2017-09-03T13:14:18.466Z,43392
2017-09-03T13:15:19.871Z,43808
2017-09-03T13:16:21.273Z,43232
2017-09-03T13:17:22.676Z,44512
2017-09-03T13:18:24.076Z,46144
2017-09-03T13:19:25.470Z,49536
2017-09-03T13:20:26.869Z,52960
2017-09-03T13:21:28.267Z,57504
2017-09-03T13:22:29.672Z,64768
2017-09-03T13:23:31.063Z,70880
2017-09-03T13:24:32.463Z,70496
2017-09-03T13:25:33.863Z,25664
2017-09-03T13:26:35.286Z,60256
2017-09-03T13:27:36.683Z,57216
2017-09-03T13:28:38.127Z,59840
2017-09-03T13:29:39.549Z,59200
2017-09-03T13:30:41.015Z,55552
2017-09-03T13:31:42.413Z,51520
2017-09-03T13:32:43.808Z,49024
2017-09-03T13:33:45.239Z,47264
2017-09-03T13:34:46.629Z,46976
2017-09-03T13:35:48.106Z,50272
2017-09-03T13:36:49.518Z,50208
2017-09-03T13:37:50.924Z,48416
2017-09-03T13:38:52.323Z,46720
2017-09-03T13:39:53.728Z,45760
2017-09-03T13:40:55.119Z,45408
2017-09-03T13:41:56.519Z,44992
2017-09-03T13:42:57.919Z,46048
2017-09-03T13:43:59.317Z,45696
2017-09-03T13:45:00.725Z,44768
2017-09-03T13:46:02.126Z,19264
2017-09-03T13:47:03.526Z,19264
2017-09-03T13:48:04.941Z,30400
2017-09-03T13:49:06.331Z,42848
2017-09-03T13:50:07.723Z,41056
2017-09-03T13:51:09.124Z,17632
2017-09-03T13:52:10.521Z,17952
2017-09-03T13:53:11.919Z,18016
2017-09-03T13:54:13.317Z,17888
2017-09-03T13:55:14.710Z,16896
2017-09-03T13:56:16.106Z,16512
2017-09-03T13:57:17.510Z,21184
2017-09-03T13:58:18.907Z,16576
2017-09-03T13:59:20.308Z,15020
2017-09-03T14:00:21.704Z,24480
2017-09-03T14:01:23.109Z,30560
2017-09-03T14:02:24.500Z,31648
2017-09-03T14:03:25.921Z,28128
2017-09-03T14:04:27.319Z,14184
2017-09-03T14:05:28.712Z,14552
2017-09-03T14:06:30.113Z,34560
2017-09-03T14:07:31.529Z,13584
2017-09-03T14:09:12.914Z,12956
2017-09-03T14:10:14.315Z,12332
2017-09-03T14:11:36.317Z,12264
2017-09-03T14:12:37.706Z,12124
2017-09-03T14:14:00.740Z,12628
2017-09-03T14:15:02.138Z,12528
2017-09-03T14:16:03.522Z,12100
2017-09-03T14:17:04.924Z,12068
2017-09-03T14:18:06.314Z,12584
2017-09-03T14:19:07.707Z,13444
2017-09-03T14:20:09.096Z,13696
2017-09-03T14:21:10.497Z,13172
2017-09-03T14:22:11.885Z,13228
2017-09-03T14:23:13.274Z,13084
2017-09-03T14:24:55.662Z,12844
2017-09-03T14:25:57.041Z,12236
2017-09-03T14:26:58.442Z,12164
2017-09-03T14:27:59.829Z,12584
2017-09-03T14:29:01.221Z,12844
2017-09-03T14:30:02.609Z,13120
2017-09-03T14:31:04.113Z,13116
2017-09-03T14:32:05.834Z,15112
2017-09-03T14:33:07.276Z,40448
2017-09-03T14:34:08.709Z,57184
2017-09-03T14:35:10.105Z,22080
2017-09-03T14:36:11.503Z,14420
2017-09-03T14:37:12.924Z,14960
2017-09-03T14:38:14.327Z,15816
2017-09-03T14:39:15.784Z,15176
2017-09-03T14:40:58.153Z,14044
2017-09-03T14:41:59.538Z,13480
2017-09-03T14:43:00.929Z,11528
2017-09-03T14:44:02.310Z,10632
2017-09-03T14:45:03.951Z,10444
2017-09-03T14:46:05.340Z,10264
2017-09-03T14:47:06.729Z,10952
2017-09-03T14:48:08.151Z,12140
2017-09-03T14:49:09.580Z,24672
2017-09-03T14:50:11.031Z,37248
2017-09-03T14:51:12.419Z,32832
2017-09-03T14:52:13.821Z,21024
2017-09-03T14:53:15.206Z,25376
2017-09-03T14:54:16.596Z,17920
2017-09-03T14:55:17.993Z,22336
2017-09-03T14:56:19.381Z,20992
2017-09-03T14:57:20.832Z,20288
2017-09-03T14:58:22.288Z,19648
2017-09-03T14:59:23.756Z,17056
2017-09-03T15:00:25.160Z,17696
2017-09-03T15:01:26.569Z,17248
2017-09-03T15:02:28.011Z,15288
2017-09-03T15:03:29.398Z,10060
2017-09-03T15:04:30.806Z,10412
2017-09-03T15:05:32.197Z,12656
2017-09-03T15:06:33.585Z,14572
2017-09-03T15:07:34.982Z,11508
2017-09-03T15:08:36.374Z,14696
2017-09-03T15:09:37.790Z,10892
2017-09-03T15:10:39.200Z,10616
2017-09-03T15:11:40.590Z,10168
2017-09-03T15:13:22.978Z,8460
2017-09-03T15:14:24.375Z,7776
2017-09-03T15:15:25.773Z,7496
2017-09-03T15:16:27.158Z,7176
2017-09-03T15:17:28.542Z,6940
2017-09-03T15:18:29.931Z,6932
2017-09-03T15:19:31.329Z,6928
2017-09-03T15:20:32.710Z,6628
2017-09-03T15:21:34.099Z,6300
2017-09-03T15:22:35.490Z,6120
2017-09-03T15:23:36.876Z,6136
2017-09-03T15:24:38.261Z,6344
2017-09-03T15:25:39.645Z,7032
2017-09-03T15:26:41.037Z,9136
2017-09-03T15:27:42.425Z,7260
2017-09-03T15:29:24.810Z,7904
2017-09-03T15:30:26.228Z,8380
2017-09-03T15:31:27.623Z,9876
2017-09-03T15:32:29.013Z,11400
2017-09-03T15:33:30.392Z,12292
2017-09-03T15:34:31.794Z,13064
2017-09-03T15:35:33.261Z,13496
2017-09-03T15:36:35.099Z,13628
2017-09-03T15:37:36.528Z,13256
2017-09-03T15:38:37.916Z,13272
2017-09-03T15:39:39.323Z,12844
2017-09-03T15:40:40.796Z,10824
2017-09-03T15:41:42.192Z,10132
2017-09-03T15:42:43.577Z,9836
2017-09-03T15:43:44.957Z,9500
2017-09-03T15:45:27.348Z,9080
2017-09-03T15:46:28.738Z,8712
2017-09-03T15:47:30.125Z,8276
2017-09-03T15:48:31.508Z,7868
2017-09-03T15:49:32.891Z,7568
2017-09-03T15:50:34.311Z,7196
2017-09-03T15:51:35.729Z,6692
2017-09-03T15:52:37.119Z,6252
2017-09-03T15:53:38.510Z,5880
2017-09-03T15:54:39.916Z,5540
2017-09-03T15:55:41.316Z,5272
2017-09-03T15:56:42.762Z,5252
2017-09-03T15:57:44.141Z,5560
2017-09-03T15:58:45.715Z,5900
2017-09-03T15:59:47.107Z,6052
2017-09-03T16:00:48.520Z,6120
2017-09-03T16:01:49.942Z,5964
2017-09-03T16:02:51.391Z,5616
2017-09-03T16:03:52.774Z,5264
2017-09-03T16:04:54.158Z,5016
2017-09-03T16:05:55.660Z,4872
2017-09-03T16:06:57.088Z,4808
2017-09-03T16:07:58.520Z,4840
2017-09-03T16:08:59.911Z,4936
2017-09-03T16:10:01.352Z,5076
2017-09-03T16:11:02.817Z,5164
2017-09-03T16:12:04.242Z,5216
2017-09-03T16:13:05.659Z,5276
2017-09-03T16:14:07.099Z,5376
2017-09-03T16:15:08.493Z,5568
2017-09-03T16:16:09.967Z,5816
2017-09-03T16:17:11.374Z,6024
2017-09-03T16:18:12.754Z,6232
2017-09-03T16:19:14.227Z,6300
2017-09-03T16:20:15.623Z,6124
2017-09-03T16:21:17.008Z,5832
2017-09-03T16:22:18.483Z,5520
2017-09-03T16:23:19.873Z,5336
2017-09-03T16:24:21.336Z,5316
2017-09-03T16:25:22.708Z,5428
2017-09-03T16:26:24.095Z,5580
2017-09-03T16:27:25.488Z,5748
2017-09-03T16:28:26.873Z,5888
2017-09-03T16:29:28.253Z,6072
2017-09-03T16:30:29.636Z,6256
2017-09-03T16:31:31.020Z,6404
2017-09-03T16:32:32.402Z,6540
2017-09-03T16:33:33.786Z,6692
2017-09-03T16:34:35.170Z,6764
2017-09-03T16:35:36.560Z,6648
2017-09-03T16:36:38.002Z,6388
2017-09-03T16:37:39.387Z,6008
2017-09-03T16:38:40.800Z,5624
2017-09-03T16:39:42.185Z,5324
2017-09-03T16:40:43.584Z,5128
2017-09-03T16:41:45.021Z,5044
2017-09-03T16:42:46.453Z,5048
2017-09-03T16:43:47.836Z,5060
2017-09-03T16:44:49.229Z,5032
2017-09-03T16:45:50.738Z,4992
2017-09-03T16:46:52.111Z,4956
2017-09-03T16:47:53.496Z,4940
2017-09-03T16:48:54.932Z,4892
2017-09-03T16:49:56.333Z,4776
2017-09-03T16:50:57.838Z,4576
2017-09-03T16:51:59.289Z,4348
2017-09-03T16:53:00.689Z,4176
2017-09-03T16:54:02.094Z,4056
2017-09-03T16:55:03.491Z,3968
2017-09-03T16:56:04.879Z,3912
2017-09-03T16:57:06.318Z,3860
2017-09-03T16:58:07.701Z,3808
2017-09-03T16:59:09.085Z,3752
2017-09-03T17:00:10.517Z,3728
2017-09-03T17:01:11.906Z,3744
2017-09-03T17:02:13.287Z,3792
2017-09-03T17:03:14.671Z,3832
2017-09-03T17:04:16.117Z,3828
2017-09-03T17:05:58.559Z,3708
2017-09-03T17:06:59.945Z,3604
2017-09-03T17:08:01.344Z,3492
2017-09-03T17:09:02.729Z,3396
2017-09-03T17:10:04.117Z,3300
2017-09-03T17:11:05.494Z,3180
2017-09-03T17:12:06.874Z,3032
2017-09-03T17:13:08.257Z,2872
2017-09-03T17:14:09.644Z,2732
2017-09-03T17:15:11.078Z,2612
2017-09-03T17:16:12.460Z,2524
2017-09-03T17:17:13.842Z,2464
2017-09-03T17:18:15.222Z,2424
2017-09-03T17:19:16.618Z,2392
2017-09-03T17:20:18.002Z,2368
2017-09-03T17:21:19.379Z,2344
2017-09-03T17:22:20.772Z,2308
2017-09-03T17:23:22.150Z,2252
2017-09-03T17:24:23.545Z,2164
2017-09-03T17:25:24.976Z,2064
2017-09-03T17:26:26.464Z,1992
2017-09-03T17:27:27.833Z,1936
2017-09-03T17:28:29.255Z,1896
2017-09-03T17:29:30.734Z,1864
2017-09-03T17:30:32.133Z,1828
2017-09-03T17:31:33.563Z,1792
2017-09-03T17:32:34.969Z,1740
2017-09-03T17:33:36.441Z,1664
2017-09-03T17:34:37.895Z,1584
2017-09-03T17:35:39.341Z,1512
2017-09-03T17:36:40.787Z,1460
2017-09-03T17:38:22.171Z,1384
2017-09-03T17:39:23.550Z,1340
2017-09-03T17:40:24.924Z,1292
2017-09-03T17:41:26.353Z,1232
2017-09-03T17:42:27.730Z,1168
2017-09-03T17:43:29.111Z,1100
2017-09-03T17:44:30.499Z,1036
2017-09-03T17:45:31.877Z,980
2017-09-03T17:46:33.255Z,924
2017-09-03T17:47:34.638Z,872
2017-09-03T17:48:36.042Z,824
2017-09-03T17:49:37.425Z,776
2017-09-03T17:50:38.888Z,728
2017-09-03T17:51:40.302Z,684
2017-09-03T17:52:41.675Z,644
2017-09-03T17:54:24.040Z,568
2017-09-03T17:55:25.435Z,528
2017-09-03T17:56:26.816Z,492
2017-09-03T17:57:28.192Z,452
2017-09-03T17:58:29.571Z,424
2017-09-03T17:59:30.958Z,388
2017-09-03T18:00:32.332Z,356
2017-09-03T18:01:33.720Z,332
2017-09-03T18:02:35.095Z,304
2017-09-03T18:03:36.500Z,280
2017-09-03T18:04:37.858Z,256
2017-09-03T18:05:39.234Z,236
2017-09-03T18:06:40.607Z,212
2017-09-03T18:07:41.998Z,196
2017-09-03T18:08:43.375Z,176
2017-09-03T18:09:44.748Z,160
2017-09-03T18:10:46.137Z,144
2017-09-03T18:11:47.519Z,132
2017-09-03T18:12:48.905Z,120
2017-09-03T18:13:50.271Z,108
2017-09-03T18:14:51.656Z,96
2017-09-03T18:15:53.032Z,88
2017-09-03T18:16:54.418Z,76
2017-09-03T18:17:55.784Z,68
2017-09-03T18:18:57.161Z,60
2017-09-03T18:19:58.527Z,52
2017-09-03T18:20:59.914Z,48
2017-09-03T18:22:01.432Z,40
2017-09-03T18:23:03.425Z,36
2017-09-03T18:24:05.024Z,32
2017-09-03T18:25:06.788Z,28
2017-09-03T18:26:49.234Z,20
2017-09-03T18:27:50.594Z,16
2017-09-03T18:28:51.963Z,16
2017-09-03T18:29:53.374Z,12
2017-09-03T18:30:54.746Z,12
2017-09-03T18:31:56.425Z,12
2017-09-03T18:32:57.849Z,8
2017-09-03T18:33:59.325Z,8
2017-09-03T18:35:00.689Z,4
2017-09-03T18:36:02.061Z,4
2017-09-03T18:37:03.445Z,4
2017-09-03T18:38:04.815Z,4
2017-09-03T18:39:06.237Z,4
2017-09-03T18:40:07.617Z,0
2017-09-03T18:41:08.988Z,0
2017-09-03T18:42:10.362Z,0
2017-09-03T18:43:11.735Z,0
2017-09-03T18:44:13.116Z,0
2017-09-03T18:45:14.490Z,0
2017-09-03T18:46:15.884Z,0
2017-09-03T18:47:17.258Z,0
2017-09-03T18:48:18.633Z,0
2017-09-03T18:49:20.017Z,0
2017-09-03T18:50:21.405Z,0
2017-09-03T18:51:22.776Z,0
2017-09-03T18:52:24.150Z,0
2017-09-03T18:53:25.522Z,0
2017-09-03T18:54:27.023Z,0
2017-09-03T18:55:28.525Z,0
2017-09-03T18:56:29.897Z,0
2017-09-03T18:57:31.280Z,0
2017-09-03T18:59:13.640Z,0
2017-09-03T19:00:15.010Z,0
2017-09-03T19:01:16.387Z,0
2017-09-03T19:02:17.764Z,0
2017-09-03T19:03:19.133Z,0
2017-09-03T19:04:20.505Z,0
2017-09-03T19:05:21.878Z,0
2017-09-03T19:06:23.252Z,0
2017-09-03T19:07:24.618Z,0
2017-09-03T19:08:25.996Z,0
2017-09-03T19:09:27.400Z,0
2017-09-03T19:10:28.765Z,0
2017-09-03T19:11:30.222Z,0
2017-09-03T19:12:31.605Z,0
2017-09-03T19:13:32.998Z,0
2017-09-03T19:15:15.445Z,0
2017-09-03T19:16:16.805Z,0
2017-09-03T19:17:18.220Z,0
2017-09-03T19:18:19.594Z,0
2017-09-03T19:19:20.976Z,0
2017-09-03T19:20:22.341Z,0
2017-09-03T19:21:23.713Z,0
2017-09-03T19:22:25.088Z,0
2017-09-03T19:23:26.470Z,0
2017-09-03T19:24:28.016Z,0
2017-09-03T19:25:29.538Z,0
2017-09-03T19:26:30.928Z,0
2017-09-03T19:27:32.344Z,0
2017-09-03T19:28:33.731Z,0
2017-09-03T19:29:35.103Z,0
2017-09-03T19:31:17.458Z,0
2017-09-03T19:32:18.830Z,0
2017-09-03T19:33:20.201Z,0
2017-09-03T19:34:21.578Z,0
2017-09-03T19:35:22.949Z,0
2017-09-03T19:36:24.319Z,0
2017-09-03T19:37:25.693Z,0
2017-09-03T19:38:27.084Z,0
2017-09-03T19:39:28.454Z,0
2017-09-03T19:40:29.823Z,0
2017-09-03T19:41:31.193Z,0
2017-09-03T19:42:32.570Z,0
2017-09-03T19:43:33.949Z,0
2017-09-03T19:44:35.321Z,0
2017-09-03T19:45:36.694Z,0
2017-09-03T19:46:38.060Z,0
2017-09-03T19:47:39.438Z,0
2017-09-03T19:48:40.811Z,0
2017-09-03T19:49:42.189Z,0
2017-09-03T19:50:43.776Z,0
2017-09-03T19:51:45.198Z,0
2017-09-03T19:52:46.783Z,0
2017-09-03T19:53:48.144Z,0
2017-09-03T19:54:49.512Z,0
2017-09-03T19:55:51.124Z,0
2017-09-03T19:56:52.561Z,0
2017-09-03T19:57:53.977Z,0
2017-09-03T19:58:55.351Z,0
2017-09-03T19:59:56.846Z,0
2017-09-03T20:00:58.243Z,0
2017-09-03T20:01:59.623Z,0
2017-09-03T20:03:01.006Z,0
2017-09-03T20:04:02.383Z,0
2017-09-03T20:05:03.755Z,0
2017-09-03T20:06:05.133Z,0
2017-09-03T20:07:06.556Z,0
2017-09-03T20:08:07.967Z,0
2017-09-03T20:09:09.349Z,0
2017-09-03T20:10:10.749Z,0
2017-09-03T20:11:12.183Z,0
2017-09-03T20:12:13.603Z,0
2017-09-03T20:13:15.016Z,0
2017-09-03T20:14:16.461Z,0
2017-09-03T20:15:17.884Z,0
2017-09-03T20:16:19.247Z,0
2017-09-03T20:17:20.782Z,0
2017-09-03T20:19:02.136Z,0
2017-09-03T20:20:03.509Z,0
2017-09-03T20:21:04.888Z,0
2017-09-03T20:22:06.319Z,0
2017-09-03T20:23:07.699Z,0
2017-09-03T20:24:09.075Z,0
2017-09-03T20:25:10.475Z,0
2017-09-03T20:26:12.281Z,0
2017-09-03T20:27:13.754Z,0
2017-09-03T20:28:15.394Z,0
2017-09-03T20:29:17.139Z,0
2017-09-03T20:30:18.540Z,0
2017-09-03T20:31:20.068Z,0
2017-09-03T20:32:21.510Z,0
2017-09-03T20:33:23.043Z,0
2017-09-03T20:34:24.491Z,0
2017-09-03T20:36:05.833Z,0
2017-09-03T20:37:07.355Z,0
2017-09-03T20:38:30.334Z,0
2017-09-03T20:39:31.762Z,0
2017-09-03T20:40:33.127Z,0
2017-09-03T20:41:34.498Z,0
2017-09-03T20:42:35.870Z,0
2017-09-03T20:43:37.497Z,0
2017-09-03T20:44:38.874Z,0
2017-09-03T20:45:40.328Z,0
2017-09-03T20:46:41.684Z,0
2017-09-03T20:47:43.057Z,0
2017-09-03T20:48:44.520Z,0
2017-09-03T20:49:45.907Z,0
2017-09-03T20:50:47.285Z,0
2017-09-03T20:51:48.740Z,0
2017-09-03T20:52:50.110Z,0
2017-09-03T20:53:51.594Z,0
2017-09-03T20:54:52.972Z,0
2017-09-03T20:55:54.347Z,0
2017-09-03T20:56:55.733Z,0
2017-09-03T20:57:57.103Z,0
2017-09-03T20:58:58.479Z,0
2017-09-03T20:59:59.851Z,0
2017-09-03T21:01:01.253Z,0
2017-09-03T21:02:02.613Z,0
2017-09-03T21:03:03.984Z,0
2017-09-03T21:04:05.360Z,0
2017-09-03T21:05:06.736Z,0
2017-09-03T21:06:08.107Z,0
2017-09-03T21:07:09.482Z,0
2017-09-03T21:08:11.188Z,0
2017-09-03T21:09:12.898Z,0
2017-09-03T21:10:14.555Z,0
2017-09-03T21:11:16.190Z,0
2017-09-03T21:12:17.877Z,0
2017-09-03T21:13:19.852Z,0
2017-09-03T21:14:21.485Z,0
2017-09-03T21:15:22.860Z,0
2017-09-03T21:16:24.371Z,0
2017-09-03T21:17:25.790Z,0
2017-09-03T21:18:27.729Z,0
2017-09-03T21:19:29.164Z,0
2017-09-03T21:20:30.676Z,0
2017-09-03T21:21:32.073Z,0
2017-09-03T21:22:33.461Z,0
2017-09-03T21:24:15.813Z,0
2017-09-03T21:25:17.187Z,0
2017-09-03T21:26:18.560Z,0
2017-09-03T21:27:19.931Z,0
2017-09-03T21:28:21.320Z,0
2017-09-03T21:29:22.712Z,0
2017-09-03T21:30:24.084Z,0
2017-09-03T21:31:25.454Z,0
2017-09-03T21:32:26.823Z,0
2017-09-03T21:33:28.202Z,0
2017-09-03T21:34:29.573Z,0
2017-09-03T21:35:30.944Z,0
2017-09-03T21:36:32.334Z,0
2017-09-03T21:37:33.705Z,0
2017-09-03T21:38:35.085Z,0
2017-09-03T21:40:17.454Z,0
2017-09-03T21:41:18.827Z,0
2017-09-03T21:42:20.201Z,0
2017-09-03T21:43:21.591Z,0
2017-09-03T21:44:22.954Z,0
2017-09-03T21:45:24.346Z,0
2017-09-03T21:46:25.715Z,0
2017-09-03T21:47:27.104Z,0
2017-09-03T21:48:28.477Z,0
2017-09-03T21:49:29.846Z,0
2017-09-03T21:50:31.289Z,0
2017-09-03T21:51:32.658Z,0
2017-09-03T21:52:34.051Z,0
2017-09-03T21:53:35.423Z,0
2017-09-03T21:54:36.796Z,0
2017-09-03T21:55:38.168Z,0
2017-09-03T21:56:39.537Z,0
2017-09-03T21:57:40.926Z,0
2017-09-03T21:58:42.931Z,0
2017-09-03T21:59:44.343Z,0
2017-09-03T22:00:45.760Z,0
2017-09-03T22:01:47.249Z,0
2017-09-03T22:02:48.704Z,0
2017-09-03T22:03:50.084Z,0
2017-09-03T22:04:51.485Z,0
2017-09-03T22:05:52.925Z,0
2017-09-03T22:06:54.299Z,0
2017-09-03T22:07:55.736Z,0
2017-09-03T22:08:57.123Z,0
2017-09-03T22:09:58.488Z,0
2017-09-03T22:10:59.870Z,0
2017-09-03T22:12:01.528Z,0
2017-09-03T22:13:02.977Z,0
2017-09-03T22:14:04.452Z,0
2017-09-03T22:15:05.825Z,0
2017-09-03T22:16:07.352Z,0
2017-09-03T22:17:08.729Z,0
2017-09-03T22:18:10.366Z,0
2017-09-03T22:19:11.797Z,0
2017-09-03T22:20:13.218Z,0
2017-09-03T22:21:14.627Z,0
2017-09-03T22:22:16.006Z,0
2017-09-03T22:23:17.377Z,0
2017-09-03T22:24:18.748Z,0
2017-09-03T22:25:20.146Z,0
2017-09-03T22:26:21.581Z,0
2017-09-03T22:27:22.951Z,0
2017-09-03T22:29:05.319Z,0
2017-09-03T22:30:06.733Z,0
2017-09-03T22:31:08.102Z,0
2017-09-03T22:32:09.483Z,0
2017-09-03T22:33:10.855Z,0
2017-09-03T22:34:12.232Z,0
2017-09-03T22:35:13.609Z,0
2017-09-03T22:36:14.978Z,0
2017-09-03T22:37:16.353Z,0
2017-09-03T22:38:17.718Z,0
2017-09-03T22:39:19.093Z,0
2017-09-03T22:40:20.471Z,0
2017-09-03T22:41:21.848Z,0
2017-09-03T22:42:23.218Z,0
2017-09-03T22:43:24.590Z,0
2017-09-03T22:45:07.121Z,0
2017-09-03T22:46:08.495Z,0
2017-09-03T22:47:09.861Z,0
2017-09-03T22:48:11.332Z,0
2017-09-03T22:49:12.706Z,0
2017-09-03T22:50:14.081Z,0
2017-09-03T22:51:15.459Z,0
2017-09-03T22:52:16.838Z,0
2017-09-03T22:53:18.208Z,0
2017-09-03T22:54:19.580Z,0
2017-09-03T22:55:20.948Z,0
2017-09-03T22:56:22.534Z,0
2017-09-03T22:57:24.195Z,0
2017-09-03T22:58:25.838Z,0
2017-09-03T22:59:27.399Z,0
2017-09-03T23:00:28.802Z,0
2017-09-03T23:01:30.170Z,0
2017-09-03T23:02:31.728Z,0
2017-09-03T23:03:33.103Z,0
2017-09-03T23:04:34.477Z,0
2017-09-03T23:05:35.868Z,0
2017-09-03T23:06:37.258Z,0
2017-09-03T23:07:38.741Z,0
2017-09-03T23:08:40.248Z,0
2017-09-03T23:09:41.728Z,0
2017-09-03T23:10:43.205Z,0
2017-09-03T23:11:44.574Z,0
2017-09-03T23:12:45.955Z,0
2017-09-03T23:13:47.406Z,0
2017-09-03T23:14:48.790Z,0
2017-09-03T23:15:50.253Z,0
2017-09-03T23:17:32.634Z,0
2017-09-03T23:18:34.006Z,0
2017-09-03T23:19:35.374Z,0
2017-09-03T23:20:36.748Z,0
2017-09-03T23:21:38.113Z,0
2017-09-03T23:22:39.501Z,0
2017-09-03T23:23:41.277Z,0
2017-09-03T23:24:43.193Z,0
2017-09-03T23:25:44.743Z,0
2017-09-03T23:26:46.173Z,0
2017-09-03T23:27:47.532Z,0
2017-09-03T23:28:48.987Z,0
2017-09-03T23:29:50.362Z,0
2017-09-03T23:30:51.744Z,0
2017-09-03T23:31:53.116Z,0
2017-09-03T23:33:35.471Z,0
2017-09-03T23:34:36.839Z,0
2017-09-03T23:35:38.264Z,0
2017-09-03T23:36:39.634Z,0
2017-09-03T23:37:41.003Z,0
2017-09-03T23:38:42.376Z,0
2017-09-03T23:39:43.746Z,0
2017-09-03T23:40:45.119Z,0
2017-09-03T23:41:46.489Z,0
2017-09-03T23:42:47.857Z,0
2017-09-03T23:43:49.227Z,0
2017-09-03T23:44:50.598Z,0
2017-09-03T23:45:51.979Z,0
2017-09-03T23:46:53.350Z,0
2017-09-03T23:47:54.755Z,0
2017-09-03T23:48:56.098Z,0
2017-09-03T23:49:57.465Z,0
2017-09-03T23:50:58.839Z,0
2017-09-03T23:52:00.211Z,0
2017-09-03T23:53:01.578Z,0
2017-09-03T23:54:02.965Z,0
2017-09-03T23:55:04.340Z,0
2017-09-03T23:56:05.863Z,0
2017-09-03T23:57:07.264Z,0
2017-09-03T23:58:08.639Z,0
2017-09-03T23:59:10.016Z,0
